Time;durP1;ratioP1;P1;durP2;ratioP2;P2;SDS_P1;SDS_P2;PMS_P1;PMS_P2;Temp;Humidity;BMP_temperature;BMP_pressure;BME280_temperature;BME280_humidity;BME280_pressure;Samples;Min_cycle;Max_cycle;Signal;HPM_P1;HPM_P2
2021/07/18 00:01:52;;;;;;;6.70;4.35;;;21.10;99.90;;;;;;5026787;28;20049;-92
2021/07/18 00:04:18;;;;;;;7.65;4.55;;;21.10;99.90;;;;;;5028636;28;20461;-91
2021/07/18 00:06:44;;;;;;;6.57;4.50;;;21.10;99.90;;;;;;5012281;28;20033;-92
2021/07/18 00:09:10;;;;;;;7.63;3.63;;;21.10;99.90;;;;;;5009355;28;20034;-92
2021/07/18 00:11:35;;;;;;;10.23;6.03;;;21.10;99.90;;;;;;5018385;28;20087;-91
2021/07/18 00:14:01;;;;;;;9.95;4.28;;;20.90;99.90;;;;;;5007818;28;20104;-91
2021/07/18 00:16:26;;;;;;;9.00;6.05;;;21.00;99.90;;;;;;5027818;28;20029;-91
2021/07/18 00:18:52;;;;;;;6.05;4.35;;;21.00;99.90;;;;;;5015216;28;20030;-92
2021/07/18 00:21:18;;;;;;;7.57;3.72;;;21.00;99.90;;;;;;5025509;28;20025;-90
2021/07/18 00:23:43;;;;;;;10.38;5.55;;;21.00;99.90;;;;;;5025619;28;20033;-92
2021/07/18 00:26:09;;;;;;;9.30;4.78;;;21.00;99.90;;;;;;5023953;28;20363;-91
2021/07/18 00:28:34;;;;;;;6.95;4.72;;;20.90;99.90;;;;;;5004169;28;20026;-92
2021/07/18 00:31:00;;;;;;;5.20;3.20;;;20.80;99.90;;;;;;5027259;28;20036;-92
2021/07/18 00:33:26;;;;;;;8.63;5.90;;;20.80;99.90;;;;;;5026704;28;20010;-92
2021/07/18 00:35:52;;;;;;;9.50;4.38;;;20.80;99.90;;;;;;5024486;28;20384;-91
2021/07/18 00:38:17;;;;;;;6.40;4.20;;;20.80;99.90;;;;;;5021381;28;20040;-92
2021/07/18 00:40:43;;;;;;;7.57;4.15;;;20.80;99.90;;;;;;5025293;28;20064;-91
2021/07/18 00:43:08;;;;;;;9.27;4.22;;;20.70;99.90;;;;;;5006514;28;20462;-91
2021/07/18 00:45:34;;;;;;;5.45;3.50;;;20.70;99.90;;;;;;5020016;28;20037;-92
2021/07/18 00:48:00;;;;;;;7.07;4.05;;;20.70;99.90;;;;;;5016526;28;20070;-91
2021/07/18 00:50:25;;;;;;;5.18;3.80;;;20.60;99.90;;;;;;5012187;28;20029;-91
2021/07/18 00:52:51;;;;;;;9.48;3.45;;;20.60;99.90;;;;;;5029947;28;20100;-91
2021/07/18 00:55:19;;;;;;;5.78;3.63;;;20.50;99.90;;;;;;5034075;28;20017;-91
2021/07/18 00:57:46;;;;;;;5.80;3.65;;;20.50;99.90;;;;;;5023086;28;20025;-91
2021/07/18 01:00:14;;;;;;;7.53;4.00;;;20.50;99.90;;;;;;5009516;28;20045;-92
2021/07/18 01:02:40;;;;;;;6.90;4.53;;;20.50;99.90;;;;;;5016572;28;20068;-90
2021/07/18 01:05:08;;;;;;;7.05;4.30;;;20.40;99.90;;;;;;5018696;28;21001;-91
2021/07/18 01:07:34;;;;;;;7.25;4.55;;;20.50;99.90;;;;;;5018267;28;20032;-91
2021/07/18 01:10:01;;;;;;;9.60;3.72;;;20.40;99.90;;;;;;5018861;28;20025;-92
2021/07/18 01:12:26;;;;;;;8.20;4.82;;;20.40;99.90;;;;;;5023677;28;20060;-92
2021/07/18 01:14:52;;;;;;;7.65;4.72;;;20.40;99.90;;;;;;5019223;28;20049;-91
2021/07/18 01:17:18;;;;;;;8.88;4.88;;;20.30;99.90;;;;;;5021764;28;20018;-90
2021/07/18 01:19:43;;;;;;;10.48;3.60;;;20.30;99.90;;;;;;5014591;28;20509;-91
2021/07/18 01:22:09;;;;;;;8.30;3.88;;;20.30;99.90;;;;;;5025443;28;20818;-91
2021/07/18 01:24:34;;;;;;;4.32;3.17;;;20.30;99.90;;;;;;5005361;28;20041;-91
2021/07/18 01:27:02;;;;;;;5.50;2.90;;;20.30;99.90;;;;;;5002622;28;20030;-92
2021/07/18 01:29:28;;;;;;;7.78;3.50;;;20.20;99.90;;;;;;5024956;28;20122;-91
2021/07/18 01:31:54;;;;;;;6.15;4.57;;;20.20;99.90;;;;;;5016916;28;20040;-93
2021/07/18 01:34:20;;;;;;;8.20;3.55;;;20.20;99.90;;;;;;5017400;28;20018;-92
2021/07/18 01:36:45;;;;;;;5.22;3.72;;;20.10;99.90;;;;;;5009580;28;20480;-91
2021/07/18 01:39:14;;;;;;;5.70;4.00;;;20.10;99.90;;;;;;5008577;28;20029;-92
2021/07/18 01:41:39;;;;;;;5.82;4.65;;;20.10;99.90;;;;;;5019708;28;20113;-91
2021/07/18 01:44:07;;;;;;;5.85;3.70;;;20.10;99.90;;;;;;5015608;28;20112;-91
2021/07/18 01:46:33;;;;;;;5.80;3.00;;;20.00;99.90;;;;;;5021807;28;20029;-92
2021/07/18 01:48:59;;;;;;;9.07;3.92;;;20.10;99.90;;;;;;5020854;28;20056;-92
2021/07/18 01:51:26;;;;;;;6.25;4.10;;;20.00;99.90;;;;;;4987007;28;20523;-90
2021/07/18 01:53:53;;;;;;;5.45;4.20;;;20.00;99.90;;;;;;5009885;28;20030;-92
2021/07/18 01:56:20;;;;;;;4.75;3.38;;;19.90;99.90;;;;;;5017275;28;20021;-93
2021/07/18 01:58:50;;;;;;;7.28;3.10;;;19.90;99.90;;;;;;5001458;28;20395;-91
2021/07/18 02:01:17;;;;;;;6.63;4.57;;;19.90;99.90;;;;;;5026222;28;20140;-93
2021/07/18 02:03:44;;;;;;;5.35;3.35;;;19.90;99.90;;;;;;5018001;28;20026;-92
2021/07/18 02:06:10;;;;;;;5.20;2.72;;;19.90;99.90;;;;;;5017814;28;20046;-93
2021/07/18 02:08:37;;;;;;;7.55;2.75;;;19.90;99.90;;;;;;5026308;28;20423;-93
2021/07/18 02:11:03;;;;;;;7.93;3.67;;;19.80;99.90;;;;;;5014913;28;20057;-91
2021/07/18 02:13:29;;;;;;;6.88;3.38;;;19.70;99.90;;;;;;5018262;28;20030;-92
2021/07/18 02:15:57;;;;;;;8.13;3.75;;;19.70;99.90;;;;;;5018485;28;20029;-91
2021/07/18 02:18:22;;;;;;;5.72;3.28;;;19.80;99.90;;;;;;5022284;28;20024;-93
2021/07/18 02:20:48;;;;;;;7.47;3.00;;;19.70;99.90;;;;;;5013386;28;20033;-91
2021/07/18 02:23:13;;;;;;;4.95;3.28;;;19.70;99.90;;;;;;5006917;28;20478;-91
2021/07/18 02:25:39;;;;;;;8.18;3.75;;;19.70;99.90;;;;;;5021430;28;20036;-91
2021/07/18 02:28:04;;;;;;;5.93;3.20;;;19.70;99.90;;;;;;5012090;28;20072;-92
2021/07/18 02:30:31;;;;;;;5.70;3.15;;;19.70;99.90;;;;;;5020883;28;20021;-92
2021/07/18 02:32:57;;;;;;;4.35;3.22;;;19.60;99.90;;;;;;4991750;28;20404;-93
2021/07/18 02:35:23;;;;;;;5.65;3.53;;;19.60;99.90;;;;;;5005964;28;20022;-92
2021/07/18 02:37:49;;;;;;;6.40;4.13;;;19.60;99.90;;;;;;5025390;28;20049;-92
2021/07/18 02:40:16;;;;;;;6.13;3.38;;;19.50;99.90;;;;;;5018489;28;20030;-93
2021/07/18 02:42:42;;;;;;;8.10;3.83;;;19.50;99.90;;;;;;5012610;28;20102;-92
2021/07/18 02:45:10;;;;;;;7.43;3.20;;;19.50;99.90;;;;;;5015681;28;20492;-91
2021/07/18 02:47:36;;;;;;;10.52;4.95;;;19.50;99.90;;;;;;5008200;28;20029;-92
2021/07/18 02:50:05;;;;;;;8.65;3.55;;;19.40;99.90;;;;;;5016670;28;20045;-92
2021/07/18 02:52:30;;;;;;;5.47;3.53;;;19.40;99.90;;;;;;5012148;28;20116;-92
2021/07/18 02:54:56;;;;;;;7.72;4.95;;;19.40;99.90;;;;;;5009724;28;20564;-91
2021/07/18 02:57:22;;;;;;;8.38;5.30;;;19.40;99.90;;;;;;5013573;28;20136;-92
2021/07/18 03:02:23;;;;;;;7.63;4.32;;;19.30;99.90;;;;;;5205066;22;20057;-74
2021/07/18 03:04:48;;;;;;;13.10;7.53;;;19.40;99.90;;;;;;5001992;28;20034;-74
2021/07/18 03:07:15;;;;;;;7.32;4.88;;;19.30;99.90;;;;;;5000133;28;20061;-74
2021/07/18 03:09:40;;;;;;;7.18;4.90;;;19.30;99.90;;;;;;5011602;28;20049;-75
2021/07/18 03:12:06;;;;;;;12.73;4.55;;;19.20;99.90;;;;;;5015791;28;20067;-73
2021/07/18 03:14:32;;;;;;;7.03;4.20;;;19.20;99.90;;;;;;5013660;28;20022;-74
2021/07/18 03:16:57;;;;;;;13.30;6.93;;;19.20;99.90;;;;;;5011309;28;20076;-73
2021/07/18 03:19:23;;;;;;;8.43;5.78;;;19.20;99.90;;;;;;5010683;28;20025;-73
2021/07/18 03:21:49;;;;;;;15.05;9.10;;;19.10;99.90;;;;;;5013018;28;20059;-73
2021/07/18 03:24:17;;;;;;;9.27;5.40;;;19.20;99.90;;;;;;5013587;28;20105;-73
2021/07/18 03:26:43;;;;;;;7.22;4.47;;;19.10;99.90;;;;;;5013583;28;20022;-73
2021/07/18 03:29:08;;;;;;;7.75;4.15;;;19.20;99.90;;;;;;5001230;28;20041;-72
2021/07/18 03:31:34;;;;;;;6.28;3.70;;;19.20;99.90;;;;;;5012583;28;20097;-72
2021/07/18 03:34:03;;;;;;;5.35;3.50;;;19.10;99.90;;;;;;5013339;28;20384;-73
2021/07/18 03:36:28;;;;;;;8.05;4.13;;;19.20;99.90;;;;;;5010079;28;20030;-72
2021/07/18 03:38:54;;;;;;;5.68;3.92;;;19.20;99.90;;;;;;4996660;28;20109;-73
2021/07/18 03:41:20;;;;;;;6.57;2.97;;;19.20;99.90;;;;;;5010498;28;20033;-72
2021/07/18 03:43:47;;;;;;;4.80;3.55;;;19.20;99.90;;;;;;5014311;28;20071;-73
2021/07/18 03:46:13;;;;;;;10.73;4.45;;;19.20;99.90;;;;;;5014709;28;20063;-74
2021/07/18 03:48:39;;;;;;;7.65;5.78;;;19.20;99.90;;;;;;5002991;28;20117;-74
2021/07/18 03:51:05;;;;;;;9.25;5.28;;;19.20;99.90;;;;;;5011965;28;20034;-73
2021/07/18 03:53:30;;;;;;;5.13;3.47;;;19.10;99.90;;;;;;5012805;28;20022;-73
2021/07/18 03:55:58;;;;;;;6.07;3.80;;;19.10;99.90;;;;;;5013024;28;20113;-73
2021/07/18 03:58:24;;;;;;;7.63;4.40;;;19.10;99.90;;;;;;5014880;28;20030;-76
2021/07/18 04:00:50;;;;;;;9.68;4.63;;;19.20;99.90;;;;;;4999870;28;20041;-73
2021/07/18 04:03:16;;;;;;;13.07;5.50;;;19.10;99.90;;;;;;5015415;28;20045;-73
2021/07/18 04:05:43;;;;;;;8.65;4.28;;;19.20;99.90;;;;;;5012643;28;20057;-73
2021/07/18 04:08:09;;;;;;;9.38;4.57;;;19.20;99.90;;;;;;5017007;28;20050;-75
2021/07/18 04:10:34;;;;;;;9.55;5.05;;;19.20;99.90;;;;;;5009792;28;20037;-76
2021/07/18 04:13:00;;;;;;;6.95;4.25;;;19.20;99.90;;;;;;5007779;28;20025;-76
2021/07/18 04:15:26;;;;;;;14.80;8.18;;;19.30;99.90;;;;;;5017936;28;20021;-73
2021/07/18 04:17:54;;;;;;;9.55;4.38;;;19.30;99.90;;;;;;5014309;28;20080;-74
2021/07/18 04:20:21;;;;;;;5.65;3.40;;;19.30;99.90;;;;;;5006913;28;20491;-74
2021/07/18 04:22:46;;;;;;;6.93;4.55;;;19.40;99.90;;;;;;5008856;28;20046;-74
2021/07/18 04:25:12;;;;;;;13.77;6.50;;;19.40;99.90;;;;;;5024989;28;20018;-73
2021/07/18 04:27:44;;;;;;;6.45;3.67;;;19.40;99.90;;;;;;5022843;28;20026;-72
2021/07/18 04:30:10;;;;;;;6.47;3.80;;;19.50;99.90;;;;;;5023882;28;20034;-73
2021/07/18 04:32:35;;;;;;;6.82;4.45;;;19.50;99.90;;;;;;5015124;28;20435;-75
2021/07/18 04:35:01;;;;;;;12.38;8.40;;;19.40;99.90;;;;;;5022287;28;20515;-73
2021/07/18 04:37:26;;;;;;;7.32;3.75;;;19.50;99.90;;;;;;5013068;28;20029;-75
2021/07/18 04:39:52;;;;;;;6.70;3.35;;;19.50;99.90;;;;;;5020138;28;20037;-75
2021/07/18 04:42:17;;;;;;;9.35;4.47;;;19.60;99.90;;;;;;5019972;28;20037;-73
2021/07/18 04:44:43;;;;;;;6.18;3.45;;;19.60;99.90;;;;;;5008312;28;20081;-73
2021/07/18 04:47:08;;;;;;;7.10;3.92;;;19.70;99.90;;;;;;5013364;28;20029;-73
2021/07/18 04:49:34;;;;;;;9.68;4.05;;;19.60;99.90;;;;;;5014783;28;20030;-73
2021/07/18 04:51:59;;;;;;;11.55;3.95;;;19.70;99.90;;;;;;5011386;28;20029;-72
2021/07/18 04:54:25;;;;;;;4.82;3.63;;;19.70;99.90;;;;;;4998455;28;20025;-72
2021/07/18 04:56:53;;;;;;;8.77;3.38;;;19.70;99.90;;;;;;4991160;28;20021;-73
2021/07/18 04:59:19;;;;;;;11.50;5.38;;;19.90;99.90;;;;;;4992227;28;20048;-73
2021/07/18 05:01:45;;;;;;;7.78;4.18;;;19.90;99.90;;;;;;4996464;28;20507;-73
2021/07/18 05:04:10;;;;;;;13.15;9.10;;;20.00;99.90;;;;;;4993434;28;20373;-73
2021/07/18 05:06:36;;;;;;;6.13;3.38;;;20.00;99.90;;;;;;4967512;28;20023;-73
2021/07/18 05:09:02;;;;;;;6.03;3.45;;;19.90;99.90;;;;;;4988100;28;20026;-73
2021/07/18 05:11:35;;;;;;;6.07;4.43;;;20.00;99.90;;;;;;4995169;28;20084;-74
2021/07/18 05:14:01;;;;;;;4.90;2.90;;;20.00;99.90;;;;;;4982338;28;20023;-74
2021/07/18 05:16:26;;;;;;;4.13;2.47;;;20.00;99.90;;;;;;4983461;28;20029;-74
2021/07/18 05:18:52;;;;;;;6.45;3.65;;;20.10;99.90;;;;;;4989084;28;20070;-73
2021/07/18 05:21:18;;;;;;;5.03;3.20;;;20.10;99.90;;;;;;4976117;28;20372;-73
2021/07/18 05:23:43;;;;;;;8.48;3.28;;;20.10;99.90;;;;;;4966631;28;20086;-74
2021/07/18 05:26:09;;;;;;;3.00;2.70;;;20.20;99.90;;;;;;4992390;28;20018;-73
2021/07/18 05:28:35;;;;;;;6.88;3.78;;;20.20;99.90;;;;;;4991339;28;20229;-74
2021/07/18 05:31:00;;;;;;;5.20;3.22;;;20.30;99.90;;;;;;4989214;28;20419;-73
2021/07/18 05:33:26;;;;;;;6.60;3.60;;;20.40;99.90;;;;;;4984283;28;20066;-74
2021/07/18 05:35:52;;;;;;;4.85;3.40;;;20.50;99.90;;;;;;4989788;28;20025;-74
2021/07/18 05:38:18;;;;;;;6.80;3.90;;;20.70;99.90;;;;;;4994097;28;20077;-73
2021/07/18 05:40:43;;;;;;;6.75;2.50;;;20.70;99.90;;;;;;4992567;28;20026;-72
2021/07/18 05:43:09;;;;;;;8.73;4.63;;;20.80;99.90;;;;;;4994829;28;20034;-73
2021/07/18 05:45:34;;;;;;;5.22;2.60;;;20.90;99.90;;;;;;4990763;28;20050;-73
2021/07/18 05:48:00;;;;;;;5.40;3.33;;;21.40;99.90;;;;;;4990779;28;20025;-74
2021/07/18 05:50:26;;;;;;;5.88;2.53;;;22.30;99.90;;;;;;5005741;28;20029;-73
2021/07/18 05:52:51;;;;;;;3.65;2.83;;;23.40;99.90;;;;;;5006890;28;20033;-73
2021/07/18 05:55:17;;;;;;;5.88;2.80;;;23.80;99.90;;;;;;5001752;28;20045;-74
2021/07/18 05:57:42;;;;;;;3.90;2.47;;;23.90;99.90;;;;;;4990163;28;20022;-74
2021/07/18 06:00:10;;;;;;;5.50;3.00;;;22.50;99.90;;;;;;4997122;28;20035;-74
2021/07/18 06:02:36;;;;;;;5.07;3.35;;;22.50;99.90;;;;;;4992737;28;20099;-73
2021/07/18 06:05:02;;;;;;;6.20;4.20;;;22.40;99.90;;;;;;5007683;28;20124;-74
2021/07/18 06:07:27;;;;;;;8.90;6.03;;;21.70;99.90;;;;;;4990772;28;20044;-74
2021/07/18 06:09:53;;;;;;;6.03;3.00;;;21.50;99.90;;;;;;5005985;28;20399;-75
2021/07/18 06:12:20;;;;;;;7.40;4.90;;;21.50;99.90;;;;;;5008170;28;20029;-75
2021/07/18 06:14:45;;;;;;;8.70;4.43;;;21.50;99.90;;;;;;5001797;28;20026;-74
2021/07/18 06:17:11;;;;;;;5.75;3.17;;;21.50;99.90;;;;;;4993621;28;20077;-75
2021/07/18 06:19:40;;;;;;;5.82;3.92;;;21.50;99.90;;;;;;5001197;28;20045;-77
2021/07/18 06:22:07;;;;;;;3.65;2.47;;;21.70;99.90;;;;;;4975350;28;20117;-74
2021/07/18 06:24:33;;;;;;;6.20;2.90;;;21.70;99.90;;;;;;5002309;28;20049;-75
2021/07/18 06:27:02;;;;;;;5.03;2.83;;;21.70;99.90;;;;;;5002644;28;20029;-74
2021/07/18 06:29:28;;;;;;;6.72;4.35;;;21.70;99.90;;;;;;5002693;28;20103;-75
2021/07/18 06:31:53;;;;;;;2.97;2.40;;;21.90;99.90;;;;;;4993933;28;20475;-75
2021/07/18 06:34:19;;;;;;;4.78;2.88;;;21.70;99.90;;;;;;4999665;28;20118;-75
2021/07/18 06:36:48;;;;;;;5.93;4.03;;;22.00;99.90;;;;;;5012942;28;20380;-74
2021/07/18 06:39:14;;;;;;;5.28;3.17;;;22.00;99.90;;;;;;5015064;28;20054;-74
2021/07/18 06:41:39;;;;;;;4.45;2.92;;;22.30;99.90;;;;;;5007979;28;20057;-74
2021/07/18 06:44:05;;;;;;;5.25;3.35;;;22.60;99.90;;;;;;4992311;28;20032;-73
2021/07/18 06:46:30;;;;;;;7.32;4.80;;;23.80;99.90;;;;;;5007442;28;20084;-74
2021/07/18 06:48:56;;;;;;;5.45;2.40;;;25.30;99.90;;;;;;5013990;28;20029;-74
2021/07/18 06:51:21;;;;;;;4.32;2.78;;;26.10;98.50;;;;;;5011378;28;20403;-75
2021/07/18 06:53:47;;;;;;;3.00;2.15;;;26.30;98.60;;;;;;5008983;28;20105;-75
2021/07/18 06:56:16;;;;;;;4.30;3.08;;;28.90;93.50;;;;;;5009479;28;20109;-74
2021/07/18 06:58:41;;;;;;;3.55;2.80;;;28.80;93.60;;;;;;5014083;28;20439;-74
2021/07/18 07:01:07;;;;;;;4.85;2.60;;;30.50;88.20;;;;;;5004787;28;20033;-77
2021/07/18 07:03:32;;;;;;;3.60;2.50;;;30.10;88.10;;;;;;5008504;28;20037;-76
2021/07/18 07:05:58;;;;;;;4.85;2.83;;;31.00;85.30;;;;;;4994193;28;20154;-76
2021/07/18 07:08:23;;;;;;;2.40;2.20;;;30.70;83.30;;;;;;5003478;28;20088;-76
2021/07/18 07:10:49;;;;;;;2.88;1.90;;;30.70;83.30;;;;;;5013056;28;20034;-76
2021/07/18 07:13:15;;;;;;;10.00;3.10;;;30.90;80.60;;;;;;5003451;28;20022;-76
2021/07/18 07:15:41;;;;;;;2.95;1.77;;;31.70;79.70;;;;;;5012039;28;20065;-76
2021/07/18 07:18:07;;;;;;;4.57;2.08;;;31.70;76.80;;;;;;5006949;28;20053;-76
2021/07/18 07:20:33;;;;;;;3.78;2.03;;;31.50;78.40;;;;;;5008594;28;20022;-76
2021/07/18 07:22:59;;;;;;;2.63;1.83;;;31.40;76.10;;;;;;4990747;28;20105;-76
2021/07/18 07:25:25;;;;;;;4.28;2.10;;;31.60;76.50;;;;;;5003809;28;20033;-76
2021/07/18 07:27:51;;;;;;;4.10;2.38;;;32.10;74.10;;;;;;5013805;28;20034;-77
2021/07/18 07:30:18;;;;;;;3.20;2.03;;;32.00;74.60;;;;;;5011489;28;20052;-77
2021/07/18 07:32:44;;;;;;;4.13;2.33;;;31.50;75.20;;;;;;4995352;28;20062;-77
2021/07/18 07:35:15;;;;;;;2.97;2.05;;;32.80;73.10;;;;;;5004942;28;20033;-77
2021/07/18 07:37:44;;;;;;;4.18;2.47;;;32.60;71.00;;;;;;4999454;28;20029;-76
2021/07/18 07:40:13;;;;;;;4.20;2.10;;;32.80;71.40;;;;;;5000715;28;20030;-77
2021/07/18 07:42:39;;;;;;;3.53;2.42;;;31.80;71.20;;;;;;5008126;28;20026;-76
2021/07/18 07:45:05;;;;;;;3.33;2.58;;;32.40;71.20;;;;;;4988484;28;20149;-78
2021/07/18 07:47:31;;;;;;;4.18;1.88;;;31.80;71.30;;;;;;4997253;28;20030;-77
2021/07/18 07:49:57;;;;;;;3.75;1.67;;;32.70;69.90;;;;;;4992442;28;20054;-77
2021/07/18 07:52:23;;;;;;;8.43;2.40;;;33.70;67.70;;;;;;5007122;28;20029;-85
2021/07/18 07:54:48;;;;;;;2.45;1.83;;;33.80;67.00;;;;;;5007315;28;20475;-83
2021/07/18 07:57:14;;;;;;;2.42;2.00;;;32.10;67.60;;;;;;5001982;28;20026;-83
2021/07/18 07:59:40;;;;;;;2.67;1.90;;;;;;;;;;5008563;28;20018;-79
2021/07/18 08:02:06;;;;;;;4.07;2.05;;;31.20;69.60;;;;;;5005852;28;20053;-80
2021/07/18 08:04:31;;;;;;;4.28;1.80;;;32.40;68.30;;;;;;5000401;28;20026;-80
2021/07/18 08:06:57;;;;;;;4.68;2.30;;;33.60;66.60;;;;;;4992152;28;20079;-77
2021/07/18 08:09:23;;;;;;;2.33;1.83;;;34.00;66.10;;;;;;5001390;28;20045;-84
2021/07/18 08:11:49;;;;;;;4.63;2.05;;;33.70;65.30;;;;;;4987480;28;20108;-83
2021/07/18 08:14:16;;;;;;;3.78;1.73;;;33.40;64.80;;;;;;4986146;28;20700;-80
2021/07/18 08:16:42;;;;;;;3.33;1.58;;;34.60;62.90;;;;;;4998298;28;20031;-84
2021/07/18 08:19:08;;;;;;;4.57;2.10;;;34.60;63.50;;;;;;5001410;28;20018;-83
2021/07/18 08:21:34;;;;;;;2.35;1.75;;;34.80;61.80;;;;;;4991799;28;20612;-83
2021/07/18 08:23:59;;;;;;;2.28;1.60;;;35.40;60.80;;;;;;4996930;28;20033;-77
2021/07/18 08:26:25;;;;;;;6.72;2.20;;;35.30;60.00;;;;;;4995020;28;20025;-76
2021/07/18 08:28:51;;;;;;;2.30;1.85;;;;;;;;;;4994630;28;20038;-83
2021/07/18 08:31:17;;;;;;;4.25;2.08;;;35.10;59.10;;;;;;5000668;28;20060;-78
2021/07/18 08:33:43;;;;;;;2.00;1.90;;;34.90;59.90;;;;;;4993199;28;20034;-81
2021/07/18 08:36:09;;;;;;;5.95;2.42;;;35.50;59.10;;;;;;4989850;28;20027;-75
2021/07/18 08:38:35;;;;;;;4.25;2.10;;;33.70;60.70;;;;;;4992920;28;20036;-76
2021/07/18 08:41:01;;;;;;;3.65;2.70;;;33.70;61.20;;;;;;4997091;28;20030;-76
2021/07/18 08:43:27;;;;;;;3.10;2.10;;;33.90;61.30;;;;;;4991176;28;20105;-76
2021/07/18 08:45:52;;;;;;;3.45;1.67;;;33.50;60.60;;;;;;5001387;28;20040;-78
2021/07/18 08:48:18;;;;;;;2.88;1.83;;;33.90;59.90;;;;;;5009476;28;20030;-83
2021/07/18 08:50:44;;;;;;;3.10;1.80;;;33.90;60.70;;;;;;5009632;28;20116;-87
2021/07/18 08:53:10;;;;;;;6.30;1.63;;;34.60;58.90;;;;;;5009902;28;20084;-79
2021/07/18 08:55:41;;;;;;;4.75;2.80;;;34.50;59.80;;;;;;4986837;28;20754;-79
2021/07/18 08:58:26;;;;;;;3.63;2.30;;;35.30;59.20;;;;;;4998675;28;20381;-79
2021/07/18 09:00:52;;;;;;;3.50;1.90;;;36.50;57.30;;;;;;5009623;28;20192;-79
2021/07/18 09:03:18;;;;;;;3.78;1.90;;;36.90;57.30;;;;;;5009235;28;20144;-79
2021/07/18 09:05:44;;;;;;;2.83;2.28;;;35.50;57.80;;;;;;5004962;28;20084;-78
2021/07/18 09:08:20;;;;;;;3.95;2.20;;;35.80;58.10;;;;;;5000939;28;20060;-80
2021/07/18 09:10:50;;;;;;;4.22;2.10;;;35.30;57.60;;;;;;5006191;28;20468;-79
2021/07/18 09:13:19;;;;;;;4.22;3.38;;;36.00;57.10;;;;;;4993632;28;20038;-79
2021/07/18 09:15:50;;;;;;;3.28;2.35;;;37.00;56.40;;;;;;4997552;28;20109;-79
2021/07/18 09:18:20;;;;;;;3.28;2.15;;;36.10;56.00;;;;;;4991284;28;20035;-79
2021/07/18 09:20:48;;;;;;;4.88;1.80;;;36.70;56.40;;;;;;4998520;28;20046;-80
2021/07/18 09:23:16;;;;;;;3.95;1.98;;;36.90;55.60;;;;;;5004918;28;20030;-79
2021/07/18 09:25:43;;;;;;;5.32;2.00;;;37.20;55.00;;;;;;4998793;28;20023;-88
2021/07/18 09:28:20;;;;;;;2.28;1.73;;;37.30;55.60;;;;;;5028144;28;20279;-84
2021/07/18 09:30:46;;;;;;;3.30;2.42;;;35.40;56.40;;;;;;5016578;28;20084;-85
2021/07/18 09:33:29;;;;;;;3.22;2.65;;;34.00;58.30;;;;;;5019320;28;20026;-84
2021/07/18 09:36:11;;;;;;;3.13;2.38;;;32.90;59.80;;;;;;4984725;28;20019;-86
2021/07/18 09:38:37;;;;;;;2.35;1.90;;;32.20;60.80;;;;;;5018767;28;20033;-88
2021/07/18 09:41:03;;;;;;;3.92;1.92;;;32.30;60.90;;;;;;5005413;28;20044;-89
2021/07/18 09:43:29;;;;;;;3.75;2.10;;;32.80;60.10;;;;;;5012551;28;20116;-79
2021/07/18 09:46:00;;;;;;;3.53;2.20;;;33.20;60.10;;;;;;5010105;28;20025;-82
2021/07/18 09:48:44;;;;;;;3.63;2.17;;;34.80;58.70;;;;;;4990257;28;20027;-80
2021/07/18 09:51:16;;;;;;;4.97;2.03;;;35.50;57.60;;;;;;4992543;28;20038;-83
2021/07/18 09:53:42;;;;;;;3.42;2.65;;;34.10;58.90;;;;;;5005461;28;20021;-83
2021/07/18 09:56:18;;;;;;;6.03;3.00;;;34.10;58.80;;;;;;5008344;28;20033;-84
2021/07/18 09:58:54;;;;;;;3.55;2.35;;;31.90;60.70;;;;;;5004686;28;20037;-82
2021/07/18 10:01:21;;;;;;;3.20;2.15;;;31.90;61.30;;;;;;4986458;28;20101;-84
2021/07/18 10:03:48;;;;;;;2.83;2.17;;;32.50;60.80;;;;;;4997510;28;20373;-83
2021/07/18 10:06:15;;;;;;;5.43;2.45;;;32.30;61.10;;;;;;5008142;28;20029;-85
2021/07/18 10:08:43;;;;;;;2.30;2.10;;;31.90;62.30;;;;;;5014304;28;20384;-87
2021/07/18 10:11:11;;;;;;;2.05;1.85;;;33.30;60.70;;;;;;4996808;28;20030;-87
2021/07/18 10:13:37;;;;;;;3.10;1.83;;;33.50;59.60;;;;;;4986678;28;20186;-80
2021/07/18 10:16:05;;;;;;;4.18;2.50;;;33.10;59.70;;;;;;4994084;28;20113;-80
2021/07/18 10:18:31;;;;;;;3.28;2.15;;;31.90;61.40;;;;;;5007685;28;20053;-76
2021/07/18 10:20:58;;;;;;;3.03;2.00;;;31.90;62.00;;;;;;5008074;28;20111;-79
2021/07/18 10:23:24;;;;;;;3.55;1.92;;;33.20;61.40;;;;;;5003324;28;20077;-75
2021/07/18 10:25:51;;;;;;;4.25;1.95;;;32.90;61.30;;;;;;4991255;28;20034;-75
2021/07/18 10:28:17;;;;;;;2.72;2.08;;;34.50;59.30;;;;;;4991172;28;20034;-76
2021/07/18 10:30:47;;;;;;;2.53;1.80;;;32.40;60.50;;;;;;4974573;28;20029;-75
2021/07/18 10:33:18;;;;;;;3.03;2.10;;;32.80;60.70;;;;;;4998399;28;20084;-75
2021/07/18 10:35:46;;;;;;;3.15;2.38;;;32.70;61.10;;;;;;4977658;28;20473;-77
2021/07/18 10:38:20;;;;;;;4.47;2.00;;;33.40;61.30;;;;;;4981326;28;20158;-75
2021/07/18 10:40:51;;;;;;;5.97;2.08;;;33.70;59.40;;;;;;5002556;28;20630;-77
2021/07/18 10:43:37;;;;;;;4.00;1.98;;;34.10;59.10;;;;;;5007411;28;20480;-76
2021/07/18 10:46:06;;;;;;;2.75;2.10;;;33.50;59.80;;;;;;4991226;28;20046;-78
2021/07/18 10:48:50;;;;;;;2.05;1.77;;;34.50;58.30;;;;;;4994761;28;20031;-79
2021/07/18 10:51:19;;;;;;;2.65;2.20;;;32.90;59.20;;;;;;4983913;28;20030;-79
2021/07/18 10:53:48;;;;;;;3.33;2.00;;;32.10;60.60;;;;;;5004925;28;20538;-79
2021/07/18 10:56:37;;;;;;;2.45;2.17;;;31.50;61.90;;;;;;4985496;28;20046;-78
2021/07/18 10:59:03;;;;;;;3.50;2.10;;;31.60;61.90;;;;;;4976629;28;20045;-76
2021/07/18 11:01:31;;;;;;;4.70;2.50;;;30.90;62.70;;;;;;4980162;28;20538;-74
2021/07/18 11:04:04;;;;;;;3.22;2.53;;;29.90;64.50;;;;;;4986176;28;20072;-79
2021/07/18 11:06:39;;;;;;;6.68;2.60;;;29.90;66.30;;;;;;4995826;28;20113;-75
2021/07/18 11:09:12;;;;;;;3.53;2.10;;;30.70;65.30;;;;;;4979122;28;20065;-75
2021/07/18 11:11:50;;;;;;;4.55;2.50;;;31.60;63.10;;;;;;4998443;28;20029;-77
2021/07/18 11:14:31;;;;;;;6.03;2.63;;;;;;;;;;4987498;28;20026;-79
2021/07/18 11:16:59;;;;;;;3.78;1.75;;;30.90;63.90;;;;;;4996240;28;20107;-80
2021/07/18 11:19:37;;;;;;;5.63;2.47;;;31.50;63.60;;;;;;5008696;28;20029;-78
2021/07/18 11:22:04;;;;;;;4.55;2.40;;;31.30;63.10;;;;;;4995039;28;20018;-78
2021/07/18 11:24:53;;;;;;;3.67;2.00;;;31.40;63.40;;;;;;4998478;28;20032;-76
2021/07/18 11:27:45;;;;;;;7.35;4.50;;;32.20;62.00;;;;;;5000698;28;20030;-75
2021/07/18 11:30:37;;;;;;;1.90;1.63;;;32.10;61.70;;;;;;4998045;28;20124;-77
2021/07/18 11:33:26;;;;;;;2.95;2.03;;;31.30;63.30;;;;;;4993354;28;20247;-79
2021/07/18 11:35:56;;;;;;;4.93;2.13;;;31.60;63.40;;;;;;5002305;28;20018;-76
2021/07/18 11:38:22;;;;;;;3.28;2.15;;;33.20;61.10;;;;;;5000192;28;20196;-77
2021/07/18 11:40:48;;;;;;;2.80;2.22;;;31.60;62.50;;;;;;4996343;28;20037;-75
2021/07/18 11:43:13;;;;;;;3.75;1.80;;;31.60;63.10;;;;;;4998673;28;20031;-73
2021/07/18 11:45:39;;;;;;;3.33;2.30;;;;;;;;;;5000476;28;20354;-76
2021/07/18 11:48:06;;;;;;;5.10;2.05;;;31.80;62.70;;;;;;4999884;28;20060;-74
2021/07/18 11:50:31;;;;;;;2.28;1.90;;;34.50;58.60;;;;;;5004974;28;20048;-76
2021/07/18 11:53:00;;;;;;;5.05;2.03;;;34.50;59.00;;;;;;4996585;28;20396;-76
2021/07/18 11:55:26;;;;;;;3.28;2.10;;;35.50;57.90;;;;;;4996261;28;20033;-77
2021/07/18 11:57:55;;;;;;;2.25;1.90;;;36.00;56.70;;;;;;5001209;28;20022;-77
2021/07/18 12:00:20;;;;;;;5.10;1.85;;;34.30;57.60;;;;;;4991477;28;20106;-76
2021/07/18 12:02:47;;;;;;;6.55;2.47;;;34.00;58.20;;;;;;5010543;28;20128;-74
2021/07/18 12:05:13;;;;;;;4.53;1.92;;;34.50;59.30;;;;;;5003199;28;20044;-80
2021/07/18 12:07:39;;;;;;;2.45;1.70;;;;;;;;;;5004066;28;20029;-75
2021/07/18 12:10:16;;;;;;;2.45;1.63;;;35.40;55.60;;;;;;5000958;28;20022;-74
2021/07/18 12:12:47;;;;;;;3.83;1.67;;;35.20;56.30;;;;;;4998271;28;20033;-76
2021/07/18 12:15:13;;;;;;;2.13;1.42;;;;;;;;;;5003110;28;20144;-77
2021/07/18 12:17:42;;;;;;;5.22;1.77;;;33.40;58.30;;;;;;4991184;28;20022;-77
2021/07/18 12:20:09;;;;;;;1.80;1.45;;;33.60;58.90;;;;;;4998584;28;20018;-76
2021/07/18 12:22:34;;;;;;;3.30;1.83;;;33.50;58.30;;;;;;4983341;28;20025;-75
2021/07/18 12:25:00;;;;;;;2.42;1.55;;;33.20;58.50;;;;;;5005543;28;20080;-76
2021/07/18 12:27:27;;;;;;;3.22;1.90;;;33.50;58.80;;;;;;5000631;28;20065;-76
2021/07/18 12:29:58;;;;;;;5.05;1.88;;;33.00;58.40;;;;;;5003105;28;20189;-76
2021/07/18 12:32:30;;;;;;;2.72;1.90;;;33.20;59.20;;;;;;4995257;28;20609;-76
2021/07/18 12:34:57;;;;;;;2.70;1.70;;;34.20;58.20;;;;;;4991764;28;20455;-76
2021/07/18 12:37:28;;;;;;;2.85;1.70;;;34.30;57.10;;;;;;4995220;28;20083;-76
2021/07/18 12:39:59;;;;;;;2.40;1.50;;;35.20;55.90;;;;;;4993220;28;20184;-76
2021/07/18 12:42:32;;;;;;;2.45;1.70;;;33.60;56.40;;;;;;4991429;28;20396;-76
2021/07/18 12:45:09;;;;;;;3.08;2.17;;;33.00;57.20;;;;;;5006902;28;20543;-76
2021/07/18 12:47:48;;;;;;;1.95;1.60;;;33.40;58.10;;;;;;4994590;28;20049;-76
2021/07/18 12:50:31;;;;;;;2.28;1.65;;;33.40;58.50;;;;;;4994268;28;20039;-75
2021/07/18 12:53:12;;;;;;;3.03;1.65;;;35.20;56.50;;;;;;4990537;28;20069;-76